Richland, Missouri
Current Conditions -  °F | °C
As of 4:58 PM on Saturday 22 Nov 2014 (Local Time) from KTBN Reporting Station
Broken Clouds Broken Clouds  
Wind Chill: 53°   Ceiling: 900
Heat Index: 53°   Visibility: 10mi
Dew Point: 53°   Wind: 13mph
Humidity: 100%   Direction: 160°SSE
Pressure: 29.91"   Gusts: NA
Location:  37.86°N, 92.4°W
Report Text: KTBN 222258Z AUTO 16011KT 10SM BKN009 BKN080 11/11 A2991 RMK AO2 RAE2229DZB2210E2231 CIG 009V080 BKN009 V SCT SLP131 P0001 T01140114
Loading
Personal Weather Stations






























Interactive Weather Map New forecast layout! Learn more

10-Day Weather Forecast

Advertisements
Track Severe Weather on mobile